sensor_id;sensor_type;location;lat;lon;timestamp;pressure;altitude;pressure_sealevel;temperature;humidity
59825;BME280;45703;50.898;6.054;2023-05-25T00:00:12;101033.88;;;10.66;82.05
59825;BME280;45703;50.898;6.054;2023-05-25T00:02:38;101028.78;;;10.65;81.66
59825;BME280;45703;50.898;6.054;2023-05-25T00:05:05;101030.19;;;10.61;81.21
59825;BME280;45703;50.898;6.054;2023-05-25T00:07:30;101027.94;;;10.58;81.43
59825;BME280;45703;50.898;6.054;2023-05-25T00:09:56;101028.13;;;10.56;81.49
59825;BME280;45703;50.898;6.054;2023-05-25T00:12:21;101036.34;;;10.55;82.12
59825;BME280;45703;50.898;6.054;2023-05-25T00:14:47;101014.13;;;10.41;81.37
59825;BME280;45703;50.898;6.054;2023-05-25T00:17:12;101028.53;;;10.47;81.65
59825;BME280;45703;50.898;6.054;2023-05-25T00:19:38;101032.00;;;10.47;82.22
59825;BME280;45703;50.898;6.054;2023-05-25T00:22:07;101026.22;;;10.44;82.51
59825;BME280;45703;50.898;6.054;2023-05-25T00:24:33;101023.56;;;10.44;82.53
59825;BME280;45703;50.898;6.054;2023-05-25T00:26:58;101021.69;;;10.38;82.56
59825;BME280;45703;50.898;6.054;2023-05-25T00:29:24;101019.03;;;10.31;82.51
59825;BME280;45703;50.898;6.054;2023-05-25T00:31:51;101017.38;;;10.30;82.52
59825;BME280;45703;50.898;6.054;2023-05-25T00:34:16;101018.41;;;10.29;82.71
59825;BME280;45703;50.898;6.054;2023-05-25T00:36:42;101015.53;;;10.24;82.78
59825;BME280;45703;50.898;6.054;2023-05-25T00:39:08;101023.09;;;10.21;82.43
59825;BME280;45703;50.898;6.054;2023-05-25T00:41:35;101023.09;;;10.21;82.56
59825;BME280;45703;50.898;6.054;2023-05-25T00:44:06;101025.53;;;10.16;82.53
59825;BME280;45703;50.898;6.054;2023-05-25T00:46:33;101031.66;;;10.10;82.65
59825;BME280;45703;50.898;6.054;2023-05-25T00:48:58;101025.09;;;10.06;83.02
59825;BME280;45703;50.898;6.054;2023-05-25T00:51:25;101024.66;;;10.02;83.18
59825;BME280;45703;50.898;6.054;2023-05-25T00:53:51;101027.06;;;9.98;83.04
59825;BME280;45703;50.898;6.054;2023-05-25T00:56:29;101018.84;;;9.93;82.08
59825;BME280;45703;50.898;6.054;2023-05-25T00:58:59;101018.00;;;9.92;83.06
59825;BME280;45703;50.898;6.054;2023-05-25T01:01:30;101014.69;;;9.84;83.08
59825;BME280;45703;50.898;6.054;2023-05-25T01:03:58;101020.81;;;9.84;83.42
59825;BME280;45703;50.898;6.054;2023-05-25T01:06:29;101016.28;;;9.78;83.06
59825;BME280;45703;50.898;6.054;2023-05-25T01:09:02;101026.16;;;9.84;83.07
59825;BME280;45703;50.898;6.054;2023-05-25T01:11:32;101020.81;;;9.84;82.17
59825;BME280;45703;50.898;6.054;2023-05-25T01:13:58;101029.84;;;9.83;83.48
59825;BME280;45703;50.898;6.054;2023-05-25T01:16:24;101020.19;;;9.82;84.01
59825;BME280;45703;50.898;6.054;2023-05-25T01:18:53;101031.50;;;9.84;84.03
59825;BME280;45703;50.898;6.054;2023-05-25T01:21:29;101022.88;;;9.82;84.24
59825;BME280;45703;50.898;6.054;2023-05-25T01:24:02;101038.06;;;9.88;86.08
59825;BME280;45703;50.898;6.054;2023-05-25T01:26:45;101022.91;;;9.89;84.81
59825;BME280;45703;50.898;6.054;2023-05-25T01:29:13;101025.38;;;9.90;85.50
59825;BME280;45703;50.898;6.054;2023-05-25T01:31:39;101031.94;;;9.94;84.93
59825;BME280;45703;50.898;6.054;2023-05-25T01:34:06;101024.97;;;9.93;85.06
59825;BME280;45703;50.898;6.054;2023-05-25T01:36:31;101033.22;;;9.98;85.36
59825;BME280;45703;50.898;6.054;2023-05-25T01:38:57;101019.63;;;9.93;85.49
59825;BME280;45703;50.898;6.054;2023-05-25T01:41:23;101015.53;;;9.91;85.52
59825;BME280;45703;50.898;6.054;2023-05-25T01:43:48;101025.41;;;9.97;85.41
59825;BME280;45703;50.898;6.054;2023-05-25T01:46:36;101022.13;;;9.95;84.93
59825;BME280;45703;50.898;6.054;2023-05-25T01:54:42;101037.28;;;9.88;84.41
59825;BME280;45703;50.898;6.054;2023-05-25T01:57:11;101025.34;;;9.84;84.70
59825;BME280;45703;50.898;6.054;2023-05-25T01:59:38;101028.22;;;9.82;83.51
59825;BME280;45703;50.898;6.054;2023-05-25T02:02:06;101021.66;;;9.85;83.77
59825;BME280;45703;50.898;6.054;2023-05-25T02:04:32;101027.34;;;9.75;84.10
59825;BME280;45703;50.898;6.054;2023-05-25T02:06:58;101032.69;;;9.75;84.72
59825;BME280;45703;50.898;6.054;2023-05-25T02:09:23;101034.66;;;9.67;84.78
59825;BME280;45703;50.898;6.054;2023-05-25T02:11:48;101033.88;;;9.66;85.12
59825;BME280;45703;50.898;6.054;2023-05-25T02:14:15;101032.44;;;9.70;85.23
59825;BME280;45703;50.898;6.054;2023-05-25T02:16:40;101040.06;;;9.73;85.24
59825;BME280;45703;50.898;6.054;2023-05-25T02:19:07;101036.75;;;9.71;84.88
59825;BME280;45703;50.898;6.054;2023-05-25T02:21:32;101032.44;;;9.70;85.40
59825;BME280;45703;50.898;6.054;2023-05-25T02:23:57;101018.06;;;9.65;84.84
59825;BME280;45703;50.898;6.054;2023-05-25T02:26:23;101035.50;;;9.67;85.39
59825;BME280;45703;50.898;6.054;2023-05-25T02:28:50;101029.72;;;9.64;85.00
59825;BME280;45703;50.898;6.054;2023-05-25T02:31:15;101025.66;;;9.68;85.05
59825;BME280;45703;50.898;6.054;2023-05-25T02:33:41;101025.03;;;9.66;85.33
59825;BME280;45703;50.898;6.054;2023-05-25T02:36:07;101044.59;;;9.79;85.20
59825;BME280;45703;50.898;6.054;2023-05-25T02:38:32;101041.31;;;9.77;85.08
59825;BME280;45703;50.898;6.054;2023-05-25T02:40:57;101047.88;;;9.81;84.95
59825;BME280;45703;50.898;6.054;2023-05-25T02:43:23;101035.97;;;9.77;85.36
59825;BME280;45703;50.898;6.054;2023-05-25T02:45:48;101033.06;;;9.72;84.81
59825;BME280;45703;50.898;6.054;2023-05-25T02:48:14;101046.25;;;9.80;84.45
59825;BME280;45703;50.898;6.054;2023-05-25T02:50:39;101046.25;;;9.80;84.35
59825;BME280;45703;50.898;6.054;2023-05-25T02:53:04;101055.47;;;9.78;85.01
59825;BME280;45703;50.898;6.054;2023-05-25T02:55:30;101041.28;;;9.71;84.59
59825;BME280;45703;50.898;6.054;2023-05-25T02:57:55;101052.31;;;9.68;84.66
59825;BME280;45703;50.898;6.054;2023-05-25T03:00:21;101057.22;;;9.64;84.71
59825;BME280;45703;50.898;6.054;2023-05-25T03:02:46;101054.34;;;9.59;86.40
59825;BME280;45703;50.898;6.054;2023-05-25T03:05:13;101053.47;;;9.52;84.54
59825;BME280;45703;50.898;6.054;2023-05-25T03:07:39;101055.50;;;9.50;85.71
59825;BME280;45703;50.898;6.054;2023-05-25T03:10:05;101053.97;;;9.41;85.13
59825;BME280;45703;50.898;6.054;2023-05-25T03:12:31;101062.34;;;9.38;85.47
59825;BME280;45703;50.898;6.054;2023-05-25T03:14:56;101054.75;;;9.35;86.24
59825;BME280;45703;50.898;6.054;2023-05-25T03:17:21;101065.22;;;9.37;84.89
59825;BME280;45703;50.898;6.054;2023-05-25T03:19:47;101048.38;;;9.30;85.59
59825;BME280;45703;50.898;6.054;2023-05-25T03:22:12;101070.13;;;9.33;85.31
59825;BME280;45703;50.898;6.054;2023-05-25T03:24:37;101065.94;;;9.24;86.40
59825;BME280;45703;50.898;6.054;2023-05-25T03:27:06;101063.03;;;9.19;87.33
59825;BME280;45703;50.898;6.054;2023-05-25T03:29:31;101067.97;;;9.22;86.14
59825;BME280;45703;50.898;6.054;2023-05-25T03:31:57;101065.06;;;9.17;87.40
59825;BME280;45703;50.898;6.054;2023-05-25T03:34:22;101082.69;;;9.18;86.49
59825;BME280;45703;50.898;6.054;2023-05-25T03:36:49;101070.41;;;9.17;86.77
59825;BME280;45703;50.898;6.054;2023-05-25T03:39:14;101076.91;;;9.15;86.32
59825;BME280;45703;50.898;6.054;2023-05-25T03:41:39;101074.47;;;9.13;86.19
59825;BME280;45703;50.898;6.054;2023-05-25T03:44:05;101083.53;;;9.19;86.48
59825;BME280;45703;50.898;6.054;2023-05-25T03:46:30;101089.69;;;9.19;85.74
59825;BME280;45703;50.898;6.054;2023-05-25T03:48:56;101079.78;;;9.13;85.67
59825;BME280;45703;50.898;6.054;2023-05-25T03:51:21;101088.41;;;9.15;86.20
59825;BME280;45703;50.898;6.054;2023-05-25T03:53:46;101088.41;;;9.15;86.96
59825;BME280;45703;50.898;6.054;2023-05-25T03:56:12;101095.13;;;9.11;86.92
59825;BME280;45703;50.898;6.054;2023-05-25T03:58:37;101097.81;;;9.11;86.87
59825;BME280;45703;50.898;6.054;2023-05-25T04:01:03;101093.91;;;9.14;85.96
59825;BME280;45703;50.898;6.054;2023-05-25T04:03:28;101099.69;;;9.17;86.99
59825;BME280;45703;50.898;6.054;2023-05-25T04:05:53;101096.56;;;9.14;88.42
59825;BME280;45703;50.898;6.054;2023-05-25T04:08:19;101096.97;;;9.11;86.36
59825;BME280;45703;50.898;6.054;2023-05-25T04:10:45;101100.91;;;9.15;86.25
59825;BME280;45703;50.898;6.054;2023-05-25T04:13:11;101104.16;;;9.10;86.79
59825;BME280;45703;50.898;6.054;2023-05-25T04:15:36;101108.47;;;9.11;86.72
59825;BME280;45703;50.898;6.054;2023-05-25T04:18:02;101100.41;;;9.05;86.86
59825;BME280;45703;50.898;6.054;2023-05-25T04:20:27;101098.19;;;9.08;86.82
59825;BME280;45703;50.898;6.054;2023-05-25T04:22:53;101100.84;;;9.08;86.75
59825;BME280;45703;50.898;6.054;2023-05-25T04:25:20;101094.88;;;9.06;88.38
59825;BME280;45703;50.898;6.054;2023-05-25T04:27:45;101103.06;;;9.05;87.52
59825;BME280;45703;50.898;6.054;2023-05-25T04:30:12;101118.72;;;9.14;87.12
59825;BME280;45703;50.898;6.054;2023-05-25T04:32:38;101129.38;;;9.14;87.95
59825;BME280;45703;50.898;6.054;2023-05-25T04:35:05;101119.13;;;9.11;89.42
59825;BME280;45703;50.898;6.054;2023-05-25T04:37:31;101128.28;;;9.09;88.67
59825;BME280;45703;50.898;6.054;2023-05-25T04:39:57;101129.53;;;9.06;87.60
59825;BME280;45703;50.898;6.054;2023-05-25T04:42:23;101122.78;;;9.10;87.93
59825;BME280;45703;50.898;6.054;2023-05-25T04:44:50;101140.03;;;9.14;87.98
59825;BME280;45703;50.898;6.054;2023-05-25T04:47:17;101134.34;;;9.17;87.25
59825;BME280;45703;50.898;6.054;2023-05-25T04:49:43;101125.72;;;9.15;88.28
59825;BME280;45703;50.898;6.054;2023-05-25T04:52:08;101125.31;;;9.18;89.07
59825;BME280;45703;50.898;6.054;2023-05-25T04:54:34;101132.94;;;9.21;87.46
59825;BME280;45703;50.898;6.054;2023-05-25T04:57:00;101136.47;;;9.28;87.31
59825;BME280;45703;50.898;6.054;2023-05-25T04:59:26;101140.03;;;9.35;87.36
59825;BME280;45703;50.898;6.054;2023-05-25T05:01:51;101141.28;;;9.39;87.51
59825;BME280;45703;50.898;6.054;2023-05-25T05:04:17;101143.41;;;9.44;87.95
59825;BME280;45703;50.898;6.054;2023-05-25T05:06:42;101134.56;;;9.43;87.34
59825;BME280;45703;50.898;6.054;2023-05-25T05:09:08;101146.13;;;9.50;87.76
59825;BME280;45703;50.898;6.054;2023-05-25T05:11:33;101152.34;;;9.57;91.11
59825;BME280;45703;50.898;6.054;2023-05-25T05:13:59;101152.75;;;9.61;91.34
59825;BME280;45703;50.898;6.054;2023-05-25T05:16:24;101150.34;;;9.66;87.86
59825;BME280;45703;50.898;6.054;2023-05-25T05:18:50;101146.66;;;9.67;86.88
59825;BME280;45703;50.898;6.054;2023-05-25T05:21:15;101159.47;;;9.78;87.61
59825;BME280;45703;50.898;6.054;2023-05-25T05:23:41;101154.56;;;9.81;86.39
59825;BME280;45703;50.898;6.054;2023-05-25T05:26:07;101141.84;;;9.83;86.95
59825;BME280;45703;50.898;6.054;2023-05-25T05:28:35;101165.97;;;9.96;86.94
59825;BME280;45703;50.898;6.054;2023-05-25T05:31:01;101163.94;;;9.98;87.14
59825;BME280;45703;50.898;6.054;2023-05-25T05:33:26;101164.75;;;9.98;87.07
59825;BME280;45703;50.898;6.054;2023-05-25T05:35:51;101177.78;;;10.08;86.27
59825;BME280;45703;50.898;6.054;2023-05-25T05:38:17;101174.97;;;10.16;86.73
59825;BME280;45703;50.898;6.054;2023-05-25T05:40:43;101162.63;;;10.15;87.53
59825;BME280;45703;50.898;6.054;2023-05-25T05:43:12;101170.50;;;10.23;87.01
59825;BME280;45703;50.898;6.054;2023-05-25T05:45:39;101170.09;;;10.26;86.54
59825;BME280;45703;50.898;6.054;2023-05-25T05:48:05;101173.00;;;10.31;89.97
59825;BME280;45703;50.898;6.054;2023-05-25T05:50:34;101167.66;;;10.31;86.84
59825;BME280;45703;50.898;6.054;2023-05-25T05:53:00;101177.81;;;10.48;86.44
59825;BME280;45703;50.898;6.054;2023-05-25T05:55:25;101175.59;;;10.52;87.02
59825;BME280;45703;50.898;6.054;2023-05-25T05:57:51;101170.25;;;10.58;85.41
59825;BME280;45703;50.898;6.054;2023-05-25T06:00:17;101183.44;;;10.66;87.56
59825;BME280;45703;50.898;6.054;2023-05-25T06:02:42;101188.41;;;10.76;87.25
59825;BME280;45703;50.898;6.054;2023-05-25T06:05:08;101186.81;;;10.81;86.36
59825;BME280;45703;50.898;6.054;2023-05-25T06:07:33;101188.88;;;10.86;86.46
59825;BME280;45703;50.898;6.054;2023-05-25T06:10:02;101190.94;;;10.97;87.14
59825;BME280;45703;50.898;6.054;2023-05-25T06:12:28;101204.56;;;11.08;86.51
59825;BME280;45703;50.898;6.054;2023-05-25T06:14:53;101188.97;;;11.12;87.23
59825;BME280;45703;50.898;6.054;2023-05-25T06:17:19;101202.94;;;11.20;85.86
59825;BME280;45703;50.898;6.054;2023-05-25T06:19:44;101196.19;;;11.24;85.05
59825;BME280;45703;50.898;6.054;2023-05-25T06:22:10;101205.06;;;11.38;85.35
59825;BME280;45703;50.898;6.054;2023-05-25T06:24:35;101205.88;;;11.44;86.27
59825;BME280;45703;50.898;6.054;2023-05-25T06:27:00;101204.84;;;11.45;84.53
59825;BME280;45703;50.898;6.054;2023-05-25T06:29:27;101208.00;;;11.55;85.05
59825;BME280;45703;50.898;6.054;2023-05-25T06:31:53;101208.63;;;11.64;85.03
59825;BME280;45703;50.898;6.054;2023-05-25T06:34:18;101197.72;;;11.65;85.93
59825;BME280;45703;50.898;6.054;2023-05-25T06:36:44;101211.94;;;11.72;84.84
59825;BME280;45703;50.898;6.054;2023-05-25T06:39:11;101208.44;;;11.78;83.44
59825;BME280;45703;50.898;6.054;2023-05-25T06:41:37;101220.16;;;11.90;84.63
59825;BME280;45703;50.898;6.054;2023-05-25T06:44:05;101224.50;;;11.98;84.84
59825;BME280;45703;50.898;6.054;2023-05-25T06:46:31;101223.03;;;12.02;84.51
59825;BME280;45703;50.898;6.054;2023-05-25T06:48:58;101221.00;;;12.10;83.52
59825;BME280;45703;50.898;6.054;2023-05-25T06:51:24;101215.66;;;12.10;84.33
59825;BME280;45703;50.898;6.054;2023-05-25T06:53:52;101226.53;;;12.22;83.97
59825;BME280;45703;50.898;6.054;2023-05-25T06:56:17;101233.34;;;12.31;85.57
59825;BME280;45703;50.898;6.054;2023-05-25T06:58:43;101227.97;;;12.31;83.85
59825;BME280;45703;50.898;6.054;2023-05-25T07:01:08;101235.38;;;12.42;83.55
59825;BME280;45703;50.898;6.054;2023-05-25T07:03:33;101225.28;;;12.44;84.18
59825;BME280;45703;50.898;6.054;2023-05-25T07:05:59;101219.50;;;12.47;83.75
59825;BME280;45703;50.898;6.054;2023-05-25T07:08:24;101230.19;;;12.53;83.70
59825;BME280;45703;50.898;6.054;2023-05-25T07:10:50;101215.78;;;12.54;82.45
59825;BME280;45703;50.898;6.054;2023-05-25T07:13:15;101218.22;;;12.62;83.31
59825;BME280;45703;50.898;6.054;2023-05-25T07:15:40;101233.03;;;12.71;82.51
59825;BME280;45703;50.898;6.054;2023-05-25T07:18:06;101232.41;;;12.76;84.43
59825;BME280;45703;50.898;6.054;2023-05-25T07:20:31;101237.13;;;12.80;83.13
59825;BME280;45703;50.898;6.054;2023-05-25T07:22:58;101221.03;;;12.80;83.05
59825;BME280;45703;50.898;6.054;2023-05-25T07:25:23;101230.47;;;12.89;82.93
59825;BME280;45703;50.898;6.054;2023-05-25T07:27:49;101243.88;;;13.02;83.32
59825;BME280;45703;50.898;6.054;2023-05-25T07:30:15;101238.28;;;13.10;82.24
59825;BME280;45703;50.898;6.054;2023-05-25T07:32:40;101243.41;;;13.18;83.20
59825;BME280;45703;50.898;6.054;2023-05-25T07:35:08;101241.50;;;13.25;82.53
59825;BME280;45703;50.898;6.054;2023-05-25T07:37:35;101253.19;;;13.37;82.38
59825;BME280;45703;50.898;6.054;2023-05-25T07:40:06;101239.34;;;13.40;81.88
59825;BME280;45703;50.898;6.054;2023-05-25T07:42:34;101246.31;;;13.54;81.09
59825;BME280;45703;50.898;6.054;2023-05-25T07:45:00;101244.84;;;13.58;81.08
59825;BME280;45703;50.898;6.054;2023-05-25T07:47:26;101240.41;;;13.70;81.87
59825;BME280;45703;50.898;6.054;2023-05-25T07:49:51;101237.66;;;13.76;82.09
59825;BME280;45703;50.898;6.054;2023-05-25T07:52:17;101244.47;;;13.79;81.51
59825;BME280;45703;50.898;6.054;2023-05-25T07:54:43;101241.91;;;13.90;81.09
59825;BME280;45703;50.898;6.054;2023-05-25T07:57:09;101241.41;;;14.00;80.92
59825;BME280;45703;50.898;6.054;2023-05-25T07:59:34;101244.88;;;14.07;80.84
59825;BME280;45703;50.898;6.054;2023-05-25T08:02:00;101242.91;;;14.20;79.69
59825;BME280;45703;50.898;6.054;2023-05-25T08:04:25;101226.00;;;14.20;79.69
59825;BME280;45703;50.898;6.054;2023-05-25T08:06:50;101247.22;;;14.45;79.56
59825;BME280;45703;50.898;6.054;2023-05-25T08:09:16;101247.47;;;14.62;79.39
59825;BME280;45703;50.898;6.054;2023-05-25T08:11:41;101257.13;;;14.69;78.48
59825;BME280;45703;50.898;6.054;2023-05-25T08:14:09;101241.06;;;14.81;78.41
59825;BME280;45703;50.898;6.054;2023-05-25T08:16:34;101250.94;;;14.87;77.68
59825;BME280;45703;50.898;6.054;2023-05-25T08:19:01;101250.81;;;14.93;77.63
59825;BME280;45703;50.898;6.054;2023-05-25T08:21:26;101248.13;;;14.93;76.58
59825;BME280;45703;50.898;6.054;2023-05-25T08:24:01;101251.28;;;14.90;76.09
59825;BME280;45703;50.898;6.054;2023-05-25T08:26:30;101254.28;;;14.82;75.93
59825;BME280;45703;50.898;6.054;2023-05-25T08:28:56;101247.16;;;14.70;76.14
59825;BME280;45703;50.898;6.054;2023-05-25T08:31:21;101250.53;;;14.65;75.94
59825;BME280;45703;50.898;6.054;2023-05-25T08:33:47;101254.63;;;14.68;76.79
59825;BME280;45703;50.898;6.054;2023-05-25T08:36:12;101245.31;;;14.70;77.14
59825;BME280;45703;50.898;6.054;2023-05-25T08:38:37;101246.66;;;14.79;77.25
59825;BME280;45703;50.898;6.054;2023-05-25T08:41:05;101261.13;;;14.96;76.77
59825;BME280;45703;50.898;6.054;2023-05-25T08:43:31;101258.53;;;15.08;75.73
59825;BME280;45703;50.898;6.054;2023-05-25T08:46:04;101249.81;;;15.24;76.85
59825;BME280;45703;50.898;6.054;2023-05-25T08:48:31;101256.63;;;15.44;75.99
59825;BME280;45703;50.898;6.054;2023-05-25T08:51:05;101257.06;;;15.59;75.10
59825;BME280;45703;50.898;6.054;2023-05-25T08:53:34;101242.34;;;15.73;74.83
59825;BME280;45703;50.898;6.054;2023-05-25T08:56:18;101242.03;;;15.93;75.00
59825;BME280;45703;50.898;6.054;2023-05-25T08:58:56;101253.28;;;16.01;73.23
59825;BME280;45703;50.898;6.054;2023-05-25T09:01:25;101254.31;;;16.00;73.13
59825;BME280;45703;50.898;6.054;2023-05-25T09:03:54;101248.56;;;15.85;70.78
59825;BME280;45703;50.898;6.054;2023-05-25T09:06:22;101244.56;;;15.76;71.96
59825;BME280;45703;50.898;6.054;2023-05-25T09:08:48;101255.78;;;15.73;71.76
59825;BME280;45703;50.898;6.054;2023-05-25T09:11:14;101258.94;;;15.70;72.90
59825;BME280;45703;50.898;6.054;2023-05-25T09:13:41;101257.63;;;15.61;72.38
59825;BME280;45703;50.898;6.054;2023-05-25T09:16:07;101259.56;;;15.54;71.04
59825;BME280;45703;50.898;6.054;2023-05-25T09:18:32;101250.31;;;15.50;72.15
59825;BME280;45703;50.898;6.054;2023-05-25T09:20:58;101244.00;;;15.45;72.75
59825;BME280;45703;50.898;6.054;2023-05-25T09:23:23;101251.50;;;15.54;73.30
59825;BME280;45703;50.898;6.054;2023-05-25T09:25:49;101257.47;;;15.56;73.65
59825;BME280;45703;50.898;6.054;2023-05-25T09:28:18;101250.28;;;15.68;72.28
59825;BME280;45703;50.898;6.054;2023-05-25T09:30:44;101244.91;;;15.68;72.74
59825;BME280;45703;50.898;6.054;2023-05-25T09:35:36;101253.16;;;15.96;70.67
59825;BME280;45703;50.898;6.054;2023-05-25T09:38:01;101256.56;;;16.03;72.23
59825;BME280;45703;50.898;6.054;2023-05-25T09:40:27;101259.97;;;16.10;71.28
59825;BME280;45703;50.898;6.054;2023-05-25T09:42:52;101269.22;;;16.25;71.34
59825;BME280;45703;50.898;6.054;2023-05-25T09:45:18;101263.72;;;16.20;67.92
59825;BME280;45703;50.898;6.054;2023-05-25T09:47:43;101253.78;;;16.21;69.00
59825;BME280;45703;50.898;6.054;2023-05-25T09:50:10;101257.19;;;16.28;68.77
59825;BME280;45703;50.898;6.054;2023-05-25T09:52:35;101260.72;;;16.40;68.84
59825;BME280;45703;50.898;6.054;2023-05-25T09:55:01;101257.09;;;16.57;69.14
59825;BME280;45703;50.898;6.054;2023-05-25T09:57:27;101268.78;;;16.74;68.91
59825;BME280;45703;50.898;6.054;2023-05-25T09:59:53;101263.28;;;16.92;68.50
59825;BME280;45703;50.898;6.054;2023-05-25T10:02:18;101259.00;;;17.08;68.04
59825;BME280;45703;50.898;6.054;2023-05-25T10:04:43;101256.63;;;17.23;67.26
59825;BME280;45703;50.898;6.054;2023-05-25T10:07:10;101267.16;;;17.24;64.33
59825;BME280;45703;50.898;6.054;2023-05-25T10:09:40;101259.31;;;17.23;64.16
59825;BME280;45703;50.898;6.054;2023-05-25T10:12:07;101262.25;;;17.33;67.04
59825;BME280;45703;50.898;6.054;2023-05-25T10:14:35;101263.19;;;17.38;66.66
59825;BME280;45703;50.898;6.054;2023-05-25T10:17:03;101252.78;;;17.46;66.17
59825;BME280;45703;50.898;6.054;2023-05-25T10:19:46;101252.50;;;17.59;65.75
59825;BME280;45703;50.898;6.054;2023-05-25T10:22:24;101263.13;;;17.49;64.54
59825;BME280;45703;50.898;6.054;2023-05-25T10:25:03;101260.22;;;17.40;65.16
59825;BME280;45703;50.898;6.054;2023-05-25T10:27:37;101256.16;;;17.26;65.66
59825;BME280;45703;50.898;6.054;2023-05-25T10:30:04;101254.31;;;17.15;64.40
59825;BME280;45703;50.898;6.054;2023-05-25T10:32:31;101256.66;;;17.11;65.25
59825;BME280;45703;50.898;6.054;2023-05-25T10:34:57;101254.44;;;17.08;65.98
59825;BME280;45703;50.898;6.054;2023-05-25T10:37:25;101247.41;;;17.07;64.43
59825;BME280;45703;50.898;6.054;2023-05-25T10:39:52;101251.63;;;17.03;65.66
59825;BME280;45703;50.898;6.054;2023-05-25T10:42:21;101255.63;;;17.01;65.05
59825;BME280;45703;50.898;6.054;2023-05-25T10:44:48;101259.16;;;17.01;66.08
59825;BME280;45703;50.898;6.054;2023-05-25T10:47:14;101253.41;;;16.98;65.65
59825;BME280;45703;50.898;6.054;2023-05-25T10:50:22;101262.44;;;17.03;66.44
59825;BME280;45703;50.898;6.054;2023-05-25T10:53:01;101256.34;;;16.96;66.05
59825;BME280;45703;50.898;6.054;2023-05-25T10:55:28;101265.34;;;17.02;66.32
59825;BME280;45703;50.898;6.054;2023-05-25T10:58:07;101260.63;;;17.09;65.46
59825;BME280;45703;50.898;6.054;2023-05-25T11:00:33;101257.50;;;17.12;64.93
59825;BME280;45703;50.898;6.054;2023-05-25T11:03:01;101259.91;;;17.25;65.02
59825;BME280;45703;50.898;6.054;2023-05-25T11:05:32;101250.84;;;17.31;65.24
59825;BME280;45703;50.898;6.054;2023-05-25T11:07:59;101258.88;;;17.53;64.81
59825;BME280;45703;50.898;6.054;2023-05-25T11:10:54;101269.00;;;17.74;63.41
59825;BME280;45703;50.898;6.054;2023-05-25T11:13:34;101260.00;;;17.85;64.50
59825;BME280;45703;50.898;6.054;2023-05-25T11:16:09;101253.88;;;18.06;63.59
59825;BME280;45703;50.898;6.054;2023-05-25T11:18:37;101251.75;;;18.25;63.06
59825;BME280;45703;50.898;6.054;2023-05-25T11:23:58;101244.69;;;18.24;61.75
59825;BME280;45703;50.898;6.054;2023-05-25T11:26:32;101242.25;;;18.22;61.83
59825;BME280;45703;50.898;6.054;2023-05-25T11:28:59;101253.56;;;18.19;62.36
59825;BME280;45703;50.898;6.054;2023-05-25T11:31:31;101251.25;;;18.11;62.70
59825;BME280;45703;50.898;6.054;2023-05-25T11:33:58;101253.22;;;17.99;59.47
59825;BME280;45703;50.898;6.054;2023-05-25T11:36:26;101251.31;;;17.83;59.94
59825;BME280;45703;50.898;6.054;2023-05-25T11:38:52;101248.84;;;17.82;60.41
59825;BME280;45703;50.898;6.054;2023-05-25T11:41:19;101258.78;;;17.76;60.61
59825;BME280;45703;50.898;6.054;2023-05-25T11:43:45;101249.59;;;17.77;61.52
59825;BME280;45703;50.898;6.054;2023-05-25T11:46:10;101242.69;;;17.70;62.08
59825;BME280;45703;50.898;6.054;2023-05-25T11:48:41;101247.97;;;17.76;61.98
59825;BME280;45703;50.898;6.054;2023-05-25T11:51:07;101255.00;;;17.77;62.56
59825;BME280;45703;50.898;6.054;2023-05-25T11:53:32;101240.50;;;17.67;61.77
59825;BME280;45703;50.898;6.054;2023-05-25T11:55:58;101241.13;;;17.57;60.84
59825;BME280;45703;50.898;6.054;2023-05-25T11:58:23;101245.13;;;17.55;60.21
59825;BME280;45703;50.898;6.054;2023-05-25T12:00:49;101241.81;;;17.64;61.34
59825;BME280;45703;50.898;6.054;2023-05-25T12:03:30;101224.06;;;17.68;62.75
59825;BME280;45703;50.898;6.054;2023-05-25T12:05:58;101241.09;;;17.85;61.84
59825;BME280;45703;50.898;6.054;2023-05-25T12:08:31;101228.88;;;17.83;61.47
59825;BME280;45703;50.898;6.054;2023-05-25T12:10:57;101244.63;;;17.86;60.85
59825;BME280;45703;50.898;6.054;2023-05-25T12:13:22;101245.84;;;17.78;61.36
59825;BME280;45703;50.898;6.054;2023-05-25T12:15:48;101232.75;;;17.87;62.67
59825;BME280;45703;50.898;6.054;2023-05-25T12:18:13;101226.94;;;17.95;62.04
59825;BME280;45703;50.898;6.054;2023-05-25T12:20:39;101236.19;;;18.15;61.34
59825;BME280;45703;50.898;6.054;2023-05-25T12:23:05;101222.28;;;18.07;60.65
59825;BME280;45703;50.898;6.054;2023-05-25T12:25:31;101233.81;;;18.02;60.35
59825;BME280;45703;50.898;6.054;2023-05-25T12:28:13;101224.25;;;17.95;61.42
59825;BME280;45703;50.898;6.054;2023-05-25T12:30:39;101216.84;;;17.90;61.16
59825;BME280;45703;50.898;6.054;2023-05-25T12:33:05;101231.78;;;17.93;61.62
59825;BME280;45703;50.898;6.054;2023-05-25T12:35:45;101228.56;;;17.79;60.82
59825;BME280;45703;50.898;6.054;2023-05-25T12:38:19;101225.22;;;17.72;60.97
59825;BME280;45703;50.898;6.054;2023-05-25T12:40:45;101231.75;;;17.76;61.97
59825;BME280;45703;50.898;6.054;2023-05-25T12:43:11;101229.13;;;17.81;60.76
59825;BME280;45703;50.898;6.054;2023-05-25T12:45:41;101232.00;;;17.91;60.98
59825;BME280;45703;50.898;6.054;2023-05-25T12:48:06;101216.06;;;17.90;60.70
59825;BME280;45703;50.898;6.054;2023-05-25T12:50:32;101227.81;;;17.84;60.50
59825;BME280;45703;50.898;6.054;2023-05-25T12:53:02;101233.06;;;17.90;61.52
59825;BME280;45703;50.898;6.054;2023-05-25T12:55:31;101225.31;;;17.94;60.92
59825;BME280;45703;50.898;6.054;2023-05-25T12:58:02;101230.78;;;18.15;59.98
59825;BME280;45703;50.898;6.054;2023-05-25T13:00:36;101227.53;;;18.30;60.68
59825;BME280;45703;50.898;6.054;2023-05-25T13:03:04;101224.88;;;18.51;61.00